sensor_id;sensor_type;location;lat;lon;timestamp;temperature;humidity
51719;DHT22;37795;53.236;5.704;2024-02-23T00:00:39;14.00;71.90
51719;DHT22;37795;53.236;5.704;2024-02-23T00:03:05;14.00;71.90
51719;DHT22;37795;53.236;5.704;2024-02-23T00:05:31;14.00;71.90
51719;DHT22;37795;53.236;5.704;2024-02-23T00:07:57;14.00;72.00
51719;DHT22;37795;53.236;5.704;2024-02-23T00:10:22;14.00;72.00
51719;DHT22;37795;53.236;5.704;2024-02-23T00:12:48;14.00;71.90
51719;DHT22;37795;53.236;5.704;2024-02-23T00:15:14;14.00;71.90
51719;DHT22;37795;53.236;5.704;2024-02-23T00:17:40;13.90;71.90
51719;DHT22;37795;53.236;5.704;2024-02-23T00:20:08;13.90;71.90
51719;DHT22;37795;53.236;5.704;2024-02-23T00:22:36;13.90;71.90
51719;DHT22;37795;53.236;5.704;2024-02-23T00:25:01;13.90;72.00
51719;DHT22;37795;53.236;5.704;2024-02-23T00:27:27;13.80;71.90
51719;DHT22;37795;53.236;5.704;2024-02-23T00:29:53;13.90;71.90
51719;DHT22;37795;53.236;5.704;2024-02-23T00:32:18;13.80;71.90
51719;DHT22;37795;53.236;5.704;2024-02-23T00:34:44;13.80;71.90
51719;DHT22;37795;53.236;5.704;2024-02-23T00:37:10;13.80;71.90
51719;DHT22;37795;53.236;5.704;2024-02-23T00:39:35;13.80;71.90
51719;DHT22;37795;53.236;5.704;2024-02-23T00:42:03;13.80;71.90
51719;DHT22;37795;53.236;5.704;2024-02-23T00:44:29;13.80;71.90
51719;DHT22;37795;53.236;5.704;2024-02-23T00:46:55;13.70;72.00
51719;DHT22;37795;53.236;5.704;2024-02-23T00:49:20;13.70;71.90
51719;DHT22;37795;53.236;5.704;2024-02-23T00:51:46;13.70;71.90
51719;DHT22;37795;53.236;5.704;2024-02-23T00:54:12;13.70;71.90
51719;DHT22;37795;53.236;5.704;2024-02-23T00:56:37;13.70;71.90
51719;DHT22;37795;53.236;5.704;2024-02-23T00:59:03;13.70;71.90
51719;DHT22;37795;53.236;5.704;2024-02-23T01:01:28;13.60;71.90
51719;DHT22;37795;53.236;5.704;2024-02-23T01:03:54;13.60;71.90
51719;DHT22;37795;53.236;5.704;2024-02-23T01:06:20;13.60;71.90
51719;DHT22;37795;53.236;5.704;2024-02-23T01:08:46;13.60;71.90
51719;DHT22;37795;53.236;5.704;2024-02-23T01:11:11;13.60;72.00
51719;DHT22;37795;53.236;5.704;2024-02-23T01:13:37;13.60;72.00
51719;DHT22;37795;53.236;5.704;2024-02-23T01:16:03;13.60;72.00
51719;DHT22;37795;53.236;5.704;2024-02-23T01:18:29;13.60;72.00
51719;DHT22;37795;53.236;5.704;2024-02-23T01:20:56;13.60;72.10
51719;DHT22;37795;53.236;5.704;2024-02-23T01:23:22;13.60;72.10
51719;DHT22;37795;53.236;5.704;2024-02-23T01:25:48;13.50;72.00
51719;DHT22;37795;53.236;5.704;2024-02-23T01:28:14;13.50;72.10
51719;DHT22;37795;53.236;5.704;2024-02-23T01:30:39;13.50;72.10
51719;DHT22;37795;53.236;5.704;2024-02-23T01:33:05;13.50;72.10
51719;DHT22;37795;53.236;5.704;2024-02-23T01:35:31;13.50;72.10
51719;DHT22;37795;53.236;5.704;2024-02-23T01:37:56;13.50;72.10
51719;DHT22;37795;53.236;5.704;2024-02-23T01:40:22;13.50;72.20
51719;DHT22;37795;53.236;5.704;2024-02-23T01:42:48;13.50;72.20
51719;DHT22;37795;53.236;5.704;2024-02-23T01:45:13;13.40;72.20
51719;DHT22;37795;53.236;5.704;2024-02-23T01:47:39;13.50;72.20
51719;DHT22;37795;53.236;5.704;2024-02-23T01:50:05;13.40;72.30
51719;DHT22;37795;53.236;5.704;2024-02-23T01:52:33;13.50;72.30
51719;DHT22;37795;53.236;5.704;2024-02-23T01:54:59;13.50;72.30
51719;DHT22;37795;53.236;5.704;2024-02-23T01:57:26;13.50;72.30
51719;DHT22;37795;53.236;5.704;2024-02-23T01:59:53;13.50;72.30
51719;DHT22;37795;53.236;5.704;2024-02-23T02:02:19;13.50;72.30
51719;DHT22;37795;53.236;5.704;2024-02-23T02:04:45;13.50;72.20
51719;DHT22;37795;53.236;5.704;2024-02-23T02:07:10;13.50;72.20
51719;DHT22;37795;53.236;5.704;2024-02-23T02:09:36;13.50;72.20
51719;DHT22;37795;53.236;5.704;2024-02-23T02:12:02;13.50;72.10
51719;DHT22;37795;53.236;5.704;2024-02-23T02:14:27;13.40;72.10
51719;DHT22;37795;53.236;5.704;2024-02-23T02:16:56;13.40;72.10
51719;DHT22;37795;53.236;5.704;2024-02-23T02:19:22;13.40;72.00
51719;DHT22;37795;53.236;5.704;2024-02-23T02:21:48;13.40;72.00
51719;DHT22;37795;53.236;5.704;2024-02-23T02:24:13;13.40;72.00
51719;DHT22;37795;53.236;5.704;2024-02-23T02:26:39;13.40;71.90
51719;DHT22;37795;53.236;5.704;2024-02-23T02:29:05;13.40;72.00
51719;DHT22;37795;53.236;5.704;2024-02-23T02:31:30;13.40;71.90
51719;DHT22;37795;53.236;5.704;2024-02-23T02:34:03;13.30;72.00
51719;DHT22;37795;53.236;5.704;2024-02-23T02:36:29;13.30;71.90
51719;DHT22;37795;53.236;5.704;2024-02-23T02:38:54;13.30;71.90
51719;DHT22;37795;53.236;5.704;2024-02-23T02:41:23;13.30;71.90
51719;DHT22;37795;53.236;5.704;2024-02-23T02:43:49;13.30;71.90
51719;DHT22;37795;53.236;5.704;2024-02-23T02:46:14;13.30;71.90
51719;DHT22;37795;53.236;5.704;2024-02-23T02:48:40;13.30;71.90
51719;DHT22;37795;53.236;5.704;2024-02-23T02:51:06;13.30;71.90
51719;DHT22;37795;53.236;5.704;2024-02-23T02:53:32;13.20;71.90
51719;DHT22;37795;53.236;5.704;2024-02-23T02:55:57;13.20;71.90
51719;DHT22;37795;53.236;5.704;2024-02-23T02:58:23;13.20;71.90
51719;DHT22;37795;53.236;5.704;2024-02-23T03:00:49;13.20;71.90
51719;DHT22;37795;53.236;5.704;2024-02-23T03:03:14;13.20;72.00
51719;DHT22;37795;53.236;5.704;2024-02-23T03:05:40;13.20;71.90
51719;DHT22;37795;53.236;5.704;2024-02-23T03:08:06;13.20;72.00
51719;DHT22;37795;53.236;5.704;2024-02-23T03:10:32;13.20;72.00
51719;DHT22;37795;53.236;5.704;2024-02-23T03:12:58;13.20;72.00
51719;DHT22;37795;53.236;5.704;2024-02-23T03:15:23;13.10;72.00
51719;DHT22;37795;53.236;5.704;2024-02-23T03:17:49;13.10;71.90
51719;DHT22;37795;53.236;5.704;2024-02-23T03:20:15;13.10;72.00
51719;DHT22;37795;53.236;5.704;2024-02-23T03:22:41;13.10;71.90
51719;DHT22;37795;53.236;5.704;2024-02-23T03:25:07;13.10;71.90
51719;DHT22;37795;53.236;5.704;2024-02-23T03:27:38;13.10;71.90
51719;DHT22;37795;53.236;5.704;2024-02-23T03:30:04;13.00;72.00
51719;DHT22;37795;53.236;5.704;2024-02-23T03:32:30;13.00;71.90
51719;DHT22;37795;53.236;5.704;2024-02-23T03:35:02;13.00;71.90
51719;DHT22;37795;53.236;5.704;2024-02-23T03:37:28;13.00;71.90
51719;DHT22;37795;53.236;5.704;2024-02-23T03:39:53;13.00;71.90
51719;DHT22;37795;53.236;5.704;2024-02-23T03:42:19;12.90;71.90
51719;DHT22;37795;53.236;5.704;2024-02-23T03:44:45;12.90;71.90
51719;DHT22;37795;53.236;5.704;2024-02-23T03:47:10;12.90;71.90
51719;DHT22;37795;53.236;5.704;2024-02-23T03:49:37;12.90;71.90
51719;DHT22;37795;53.236;5.704;2024-02-23T03:52:03;12.90;71.90
51719;DHT22;37795;53.236;5.704;2024-02-23T03:54:29;12.90;71.90
51719;DHT22;37795;53.236;5.704;2024-02-23T03:56:55;12.80;71.90
51719;DHT22;37795;53.236;5.704;2024-02-23T03:59:20;12.90;71.90
51719;DHT22;37795;53.236;5.704;2024-02-23T04:01:46;12.80;72.00
51719;DHT22;37795;53.236;5.704;2024-02-23T04:04:11;12.80;72.00
51719;DHT22;37795;53.236;5.704;2024-02-23T04:06:37;12.80;72.00
51719;DHT22;37795;53.236;5.704;2024-02-23T04:09:03;12.80;72.00
51719;DHT22;37795;53.236;5.704;2024-02-23T04:11:30;12.80;72.00
51719;DHT22;37795;53.236;5.704;2024-02-23T04:13:56;12.70;72.10
51719;DHT22;37795;53.236;5.704;2024-02-23T04:16:24;12.80;72.10
51719;DHT22;37795;53.236;5.704;2024-02-23T04:18:50;12.80;72.10
51719;DHT22;37795;53.236;5.704;2024-02-23T04:21:16;12.70;72.10
51719;DHT22;37795;53.236;5.704;2024-02-23T04:23:43;12.70;72.10
51719;DHT22;37795;53.236;5.704;2024-02-23T04:26:08;12.70;72.10
51719;DHT22;37795;53.236;5.704;2024-02-23T04:28:34;12.70;72.10
51719;DHT22;37795;53.236;5.704;2024-02-23T04:31:00;12.70;72.10
51719;DHT22;37795;53.236;5.704;2024-02-23T04:33:26;12.70;72.10
51719;DHT22;37795;53.236;5.704;2024-02-23T04:35:51;12.70;72.10
51719;DHT22;37795;53.236;5.704;2024-02-23T04:38:17;12.70;72.20
51719;DHT22;37795;53.236;5.704;2024-02-23T04:40:42;12.70;72.20
51719;DHT22;37795;53.236;5.704;2024-02-23T04:43:08;12.70;72.20
51719;DHT22;37795;53.236;5.704;2024-02-23T04:45:33;12.70;72.30
51719;DHT22;37795;53.236;5.704;2024-02-23T04:47:59;12.70;72.30
51719;DHT22;37795;53.236;5.704;2024-02-23T04:50:24;12.70;72.30
51719;DHT22;37795;53.236;5.704;2024-02-23T04:52:50;12.70;72.30
51719;DHT22;37795;53.236;5.704;2024-02-23T04:55:16;12.70;72.30
51719;DHT22;37795;53.236;5.704;2024-02-23T04:57:41;12.70;72.20
51719;DHT22;37795;53.236;5.704;2024-02-23T05:00:07;12.70;72.20
51719;DHT22;37795;53.236;5.704;2024-02-23T05:02:33;12.70;72.20
51719;DHT22;37795;53.236;5.704;2024-02-23T05:05:03;12.70;72.10
51719;DHT22;37795;53.236;5.704;2024-02-23T05:07:30;12.70;72.10
51719;DHT22;37795;53.236;5.704;2024-02-23T05:09:56;12.70;72.10
51719;DHT22;37795;53.236;5.704;2024-02-23T05:12:22;12.70;72.10
51719;DHT22;37795;53.236;5.704;2024-02-23T05:14:47;12.70;72.00
51719;DHT22;37795;53.236;5.704;2024-02-23T05:17:13;12.60;72.00
51719;DHT22;37795;53.236;5.704;2024-02-23T05:19:38;12.60;72.00
51719;DHT22;37795;53.236;5.704;2024-02-23T05:22:04;12.60;72.00
51719;DHT22;37795;53.236;5.704;2024-02-23T05:24:30;12.60;72.00
51719;DHT22;37795;53.236;5.704;2024-02-23T05:26:55;12.60;71.90
51719;DHT22;37795;53.236;5.704;2024-02-23T05:29:23;12.60;72.00
51719;DHT22;37795;53.236;5.704;2024-02-23T05:31:49;12.60;72.00
51719;DHT22;37795;53.236;5.704;2024-02-23T05:34:15;12.60;72.00
51719;DHT22;37795;53.236;5.704;2024-02-23T05:36:41;12.60;72.00
51719;DHT22;37795;53.236;5.704;2024-02-23T05:39:07;12.60;72.10
51719;DHT22;37795;53.236;5.704;2024-02-23T05:41:33;12.50;72.10
51719;DHT22;37795;53.236;5.704;2024-02-23T05:43:59;12.50;72.10
51719;DHT22;37795;53.236;5.704;2024-02-23T05:46:24;12.50;72.10
51719;DHT22;37795;53.236;5.704;2024-02-23T05:48:50;12.50;72.10
51719;DHT22;37795;53.236;5.704;2024-02-23T05:51:15;12.50;72.10
51719;DHT22;37795;53.236;5.704;2024-02-23T05:53:41;12.50;72.20
51719;DHT22;37795;53.236;5.704;2024-02-23T05:56:07;12.50;72.20
51719;DHT22;37795;53.236;5.704;2024-02-23T05:58:33;12.50;72.20
51719;DHT22;37795;53.236;5.704;2024-02-23T06:00:58;12.50;72.20
51719;DHT22;37795;53.236;5.704;2024-02-23T06:03:24;12.40;72.20
51719;DHT22;37795;53.236;5.704;2024-02-23T06:05:49;12.40;72.20
51719;DHT22;37795;53.236;5.704;2024-02-23T06:08:15;12.40;72.30
51719;DHT22;37795;53.236;5.704;2024-02-23T06:10:40;12.40;72.30
51719;DHT22;37795;53.236;5.704;2024-02-23T06:13:08;12.40;72.40
51719;DHT22;37795;53.236;5.704;2024-02-23T06:15:33;12.40;72.30
51719;DHT22;37795;53.236;5.704;2024-02-23T06:17:59;12.40;72.40
51719;DHT22;37795;53.236;5.704;2024-02-23T06:20:25;12.40;72.30
51719;DHT22;37795;53.236;5.704;2024-02-23T06:22:50;12.40;72.40
51719;DHT22;37795;53.236;5.704;2024-02-23T06:25:16;12.40;72.30
51719;DHT22;37795;53.236;5.704;2024-02-23T06:27:41;12.30;72.40
51719;DHT22;37795;53.236;5.704;2024-02-23T06:30:07;12.30;72.40
51719;DHT22;37795;53.236;5.704;2024-02-23T06:32:36;12.30;72.40
51719;DHT22;37795;53.236;5.704;2024-02-23T06:35:01;12.30;72.50
51719;DHT22;37795;53.236;5.704;2024-02-23T06:37:28;12.30;72.50
51719;DHT22;37795;53.236;5.704;2024-02-23T06:39:54;12.30;72.50
51719;DHT22;37795;53.236;5.704;2024-02-23T06:42:23;12.30;72.50
51719;DHT22;37795;53.236;5.704;2024-02-23T06:51:26;12.30;72.50
51719;DHT22;37795;53.236;5.704;2024-02-23T06:53:51;12.30;72.70
51719;DHT22;37795;53.236;5.704;2024-02-23T06:56:17;12.30;72.60
51719;DHT22;37795;53.236;5.704;2024-02-23T06:58:43;12.40;72.60
51719;DHT22;37795;53.236;5.704;2024-02-23T07:01:09;12.50;72.60
51719;DHT22;37795;53.236;5.704;2024-02-23T07:03:38;12.50;72.50
51719;DHT22;37795;53.236;5.704;2024-02-23T07:06:05;12.50;72.40
51719;DHT22;37795;53.236;5.704;2024-02-23T07:08:31;12.60;72.40
51719;DHT22;37795;53.236;5.704;2024-02-23T07:10:56;12.60;72.30
51719;DHT22;37795;53.236;5.704;2024-02-23T07:13:22;12.60;72.20
51719;DHT22;37795;53.236;5.704;2024-02-23T07:15:48;12.70;72.20
51719;DHT22;37795;53.236;5.704;2024-02-23T07:18:13;12.70;72.10
51719;DHT22;37795;53.236;5.704;2024-02-23T07:20:40;12.70;72.00
51719;DHT22;37795;53.236;5.704;2024-02-23T07:23:06;12.80;71.90
51719;DHT22;37795;53.236;5.704;2024-02-23T07:25:33;12.90;71.80
51719;DHT22;37795;53.236;5.704;2024-02-23T07:27:58;12.90;71.70
51719;DHT22;37795;53.236;5.704;2024-02-23T07:30:24;13.00;71.60
51719;DHT22;37795;53.236;5.704;2024-02-23T07:32:50;13.00;71.50
51719;DHT22;37795;53.236;5.704;2024-02-23T07:35:16;13.10;71.30
51719;DHT22;37795;53.236;5.704;2024-02-23T07:37:41;13.20;71.20
51719;DHT22;37795;53.236;5.704;2024-02-23T07:40:07;13.20;71.00
51719;DHT22;37795;53.236;5.704;2024-02-23T07:42:33;13.30;70.90
51719;DHT22;37795;53.236;5.704;2024-02-23T07:45:06;13.30;70.80
51719;DHT22;37795;53.236;5.704;2024-02-23T07:47:32;13.30;70.60
51719;DHT22;37795;53.236;5.704;2024-02-23T07:49:58;13.40;70.60
51719;DHT22;37795;53.236;5.704;2024-02-23T07:52:24;13.40;70.40
51719;DHT22;37795;53.236;5.704;2024-02-23T07:54:51;13.40;70.30
51719;DHT22;37795;53.236;5.704;2024-02-23T07:57:20;13.40;70.20
51719;DHT22;37795;53.236;5.704;2024-02-23T07:59:46;13.50;70.10
51719;DHT22;37795;53.236;5.704;2024-02-23T08:02:13;13.50;70.00
51719;DHT22;37795;53.236;5.704;2024-02-23T08:04:39;13.50;69.90
51719;DHT22;37795;53.236;5.704;2024-02-23T08:07:05;13.50;69.90
51719;DHT22;37795;53.236;5.704;2024-02-23T08:09:31;13.50;69.80
51719;DHT22;37795;53.236;5.704;2024-02-23T08:11:57;13.50;69.80
51719;DHT22;37795;53.236;5.704;2024-02-23T08:14:23;13.50;69.70
51719;DHT22;37795;53.236;5.704;2024-02-23T08:16:49;13.50;69.60
51719;DHT22;37795;53.236;5.704;2024-02-23T08:19:15;13.50;69.70
51719;DHT22;37795;53.236;5.704;2024-02-23T08:21:41;13.50;69.70
51719;DHT22;37795;53.236;5.704;2024-02-23T08:24:07;13.50;69.70
51719;DHT22;37795;53.236;5.704;2024-02-23T08:26:33;13.50;69.70
51719;DHT22;37795;53.236;5.704;2024-02-23T08:28:59;13.50;69.70
51719;DHT22;37795;53.236;5.704;2024-02-23T08:31:25;13.50;69.70
51719;DHT22;37795;53.236;5.704;2024-02-23T08:33:50;13.50;69.70
51719;DHT22;37795;53.236;5.704;2024-02-23T08:36:16;13.50;69.60
51719;DHT22;37795;53.236;5.704;2024-02-23T08:38:42;13.50;69.60
51719;DHT22;37795;53.236;5.704;2024-02-23T08:41:07;13.50;69.70
51719;DHT22;37795;53.236;5.704;2024-02-23T08:43:34;13.50;69.70
51719;DHT22;37795;53.236;5.704;2024-02-23T08:46:00;13.50;69.70
51719;DHT22;37795;53.236;5.704;2024-02-23T08:48:25;13.40;69.60
51719;DHT22;37795;53.236;5.704;2024-02-23T08:50:51;13.40;69.70
51719;DHT22;37795;53.236;5.704;2024-02-23T08:53:17;13.50;69.70
51719;DHT22;37795;53.236;5.704;2024-02-23T08:55:43;13.40;69.70
51719;DHT22;37795;53.236;5.704;2024-02-23T08:58:08;13.40;69.70
51719;DHT22;37795;53.236;5.704;2024-02-23T09:00:35;13.40;69.70
51719;DHT22;37795;53.236;5.704;2024-02-23T09:03:02;13.40;69.70
51719;DHT22;37795;53.236;5.704;2024-02-23T09:05:28;13.40;69.70
51719;DHT22;37795;53.236;5.704;2024-02-23T09:07:54;13.40;69.70
51719;DHT22;37795;53.236;5.704;2024-02-23T09:10:20;13.40;69.70
51719;DHT22;37795;53.236;5.704;2024-02-23T09:12:46;13.40;69.70
51719;DHT22;37795;53.236;5.704;2024-02-23T09:15:12;13.40;69.70
51719;DHT22;37795;53.236;5.704;2024-02-23T09:17:40;13.30;69.70
51719;DHT22;37795;53.236;5.704;2024-02-23T09:20:06;13.30;69.70
51719;DHT22;37795;53.236;5.704;2024-02-23T09:22:33;13.30;69.70
51719;DHT22;37795;53.236;5.704;2024-02-23T09:24:58;13.30;69.80
51719;DHT22;37795;53.236;5.704;2024-02-23T09:27:24;13.30;69.80
51719;DHT22;37795;53.236;5.704;2024-02-23T09:29:50;13.30;69.80
51719;DHT22;37795;53.236;5.704;2024-02-23T09:32:16;13.30;69.80
51719;DHT22;37795;53.236;5.704;2024-02-23T09:34:41;13.30;69.80
51719;DHT22;37795;53.236;5.704;2024-02-23T09:37:08;13.20;69.80
51719;DHT22;37795;53.236;5.704;2024-02-23T09:39:33;13.30;69.80
51719;DHT22;37795;53.236;5.704;2024-02-23T09:42:00;13.20;69.90
51719;DHT22;37795;53.236;5.704;2024-02-23T09:44:34;13.20;69.80
51719;DHT22;37795;53.236;5.704;2024-02-23T09:47:03;13.20;69.80
51719;DHT22;37795;53.236;5.704;2024-02-23T09:49:40;13.20;69.80
51719;DHT22;37795;53.236;5.704;2024-02-23T09:52:07;13.20;69.80
51719;DHT22;37795;53.236;5.704;2024-02-23T09:54:35;13.20;69.80
51719;DHT22;37795;53.236;5.704;2024-02-23T09:57:02;13.20;69.70
51719;DHT22;37795;53.236;5.704;2024-02-23T09:59:31;13.20;69.80
51719;DHT22;37795;53.236;5.704;2024-02-23T10:01:57;13.20;69.70
51719;DHT22;37795;53.236;5.704;2024-02-23T10:04:24;13.10;69.70
51719;DHT22;37795;53.236;5.704;2024-02-23T10:06:51;13.20;69.70
51719;DHT22;37795;53.236;5.704;2024-02-23T10:09:17;13.10;69.80
51719;DHT22;37795;53.236;5.704;2024-02-23T10:11:42;13.10;69.80
51719;DHT22;37795;53.236;5.704;2024-02-23T10:14:08;13.10;69.80
51719;DHT22;37795;53.236;5.704;2024-02-23T10:16:34;13.10;69.80
51719;DHT22;37795;53.236;5.704;2024-02-23T10:18:59;13.10;69.80
51719;DHT22;37795;53.236;5.704;2024-02-23T10:21:25;13.10;69.90
51719;DHT22;37795;53.236;5.704;2024-02-23T10:23:51;13.10;69.90
51719;DHT22;37795;53.236;5.704;2024-02-23T10:26:17;13.10;69.90
51719;DHT22;37795;53.236;5.704;2024-02-23T10:28:45;13.10;69.80
51719;DHT22;37795;53.236;5.704;2024-02-23T10:31:11;13.10;69.90
51719;DHT22;37795;53.236;5.704;2024-02-23T10:33:38;13.10;69.80
51719;DHT22;37795;53.236;5.704;2024-02-23T10:36:05;13.10;69.80
51719;DHT22;37795;53.236;5.704;2024-02-23T10:38:35;13.10;69.80
51719;DHT22;37795;53.236;5.704;2024-02-23T10:41:05;13.10;69.80
51719;DHT22;37795;53.236;5.704;2024-02-23T10:43:41;13.00;69.80
51719;DHT22;37795;53.236;5.704;2024-02-23T10:51:25;12.80;69.50
51719;DHT22;37795;53.236;5.704;2024-02-23T10:53:52;12.70;69.80
51719;DHT22;37795;53.236;5.704;2024-02-23T10:56:18;12.60;70.00
51719;DHT22;37795;53.236;5.704;2024-02-23T10:58:45;12.60;70.20
51719;DHT22;37795;53.236;5.704;2024-02-23T11:01:12;12.60;70.30
51719;DHT22;37795;53.236;5.704;2024-02-23T11:03:42;12.60;70.40
51719;DHT22;37795;53.236;5.704;2024-02-23T11:06:08;12.50;70.50
51719;DHT22;37795;53.236;5.704;2024-02-23T11:08:34;12.50;70.60
51719;DHT22;37795;53.236;5.704;2024-02-23T11:11:08;12.50;70.70
51719;DHT22;37795;53.236;5.704;2024-02-23T11:13:35;12.50;70.80
51719;DHT22;37795;53.236;5.704;2024-02-23T11:16:08;12.50;70.90
51719;DHT22;37795;53.236;5.704;2024-02-23T11:18:39;12.50;70.90
51719;DHT22;37795;53.236;5.704;2024-02-23T11:21:08;12.40;71.00
51719;DHT22;37795;53.236;5.704;2024-02-23T11:23:41;12.40;71.00
51719;DHT22;37795;53.236;5.704;2024-02-23T11:26:10;12.40;71.00
51719;DHT22;37795;53.236;5.704;2024-02-23T11:29:11;12.40;71.10
51719;DHT22;37795;53.236;5.704;2024-02-23T11:31:44;12.40;71.20
51719;DHT22;37795;53.236;5.704;2024-02-23T11:34:11;12.40;71.20
51719;DHT22;37795;53.236;5.704;2024-02-23T11:36:38;12.30;71.10
51719;DHT22;37795;53.236;5.704;2024-02-23T11:39:04;12.30;71.10
51719;DHT22;37795;53.236;5.704;2024-02-23T11:41:31;12.30;71.10
51719;DHT22;37795;53.236;5.704;2024-02-23T11:43:57;12.30;71.10
51719;DHT22;37795;53.236;5.704;2024-02-23T11:46:25;12.30;71.20
51719;DHT22;37795;53.236;5.704;2024-02-23T11:48:51;12.30;71.20
51719;DHT22;37795;53.236;5.704;2024-02-23T11:51:21;12.30;71.20
51719;DHT22;37795;53.236;5.704;2024-02-23T11:53:47;12.30;71.20
51719;DHT22;37795;53.236;5.704;2024-02-23T11:56:14;12.30;71.20
51719;DHT22;37795;53.236;5.704;2024-02-23T11:58:40;12.20;71.20
51719;DHT22;37795;53.236;5.704;2024-02-23T12:01:06;12.20;71.20
51719;DHT22;37795;53.236;5.704;2024-02-23T12:03:33;12.30;71.20
51719;DHT22;37795;53.236;5.704;2024-02-23T12:06:02;12.30;71.50
51719;DHT22;37795;53.236;5.704;2024-02-23T12:08:28;12.30;71.20
51719;DHT22;37795;53.236;5.704;2024-02-23T12:10:54;12.20;71.20
51719;DHT22;37795;53.236;5.704;2024-02-23T12:13:20;12.20;71.30
51719;DHT22;37795;53.236;5.704;2024-02-23T12:15:47;12.20;71.30
51719;DHT22;37795;53.236;5.704;2024-02-23T12:18:12;12.20;71.40
51719;DHT22;37795;53.236;5.704;2024-02-23T12:20:38;12.20;71.50
51719;DHT22;37795;53.236;5.704;2024-02-23T12:23:04;12.20;71.50
51719;DHT22;37795;53.236;5.704;2024-02-23T12:25:29;12.20;71.60
51719;DHT22;37795;53.236;5.704;2024-02-23T12:27:55;12.30;71.70
51719;DHT22;37795;53.236;5.704;2024-02-23T12:30:21;12.30;71.80
51719;DHT22;37795;53.236;5.704;2024-02-23T12:32:47;12.20;71.80
51719;DHT22;37795;53.236;5.704;2024-02-23T12:35:12;12.20;71.80
51719;DHT22;37795;53.236;5.704;2024-02-23T12:37:39;12.20;71.80
51719;DHT22;37795;53.236;5.704;2024-02-23T12:40:06;12.20;71.80
51719;DHT22;37795;53.236;5.704;2024-02-23T12:42:32;12.20;71.90
51719;DHT22;37795;53.236;5.704;2024-02-23T12:44:57;12.20;71.90
51719;DHT22;37795;53.236;5.704;2024-02-23T12:47:23;12.20;71.90
51719;DHT22;37795;53.236;5.704;2024-02-23T12:49:48;12.20;71.90
51719;DHT22;37795;53.236;5.704;2024-02-23T12:52:14;12.20;71.90
51719;DHT22;37795;53.236;5.704;2024-02-23T12:54:40;12.20;72.00
51719;DHT22;37795;53.236;5.704;2024-02-23T12:57:07;12.20;72.00
51719;DHT22;37795;53.236;5.704;2024-02-23T12:59:32;12.30;72.00
51719;DHT22;37795;53.236;5.704;2024-02-23T13:01:58;12.30;72.00
51719;DHT22;37795;53.236;5.704;2024-02-23T13:04:23;12.30;72.00
51719;DHT22;37795;53.236;5.704;2024-02-23T13:06:49;12.30;72.10
51719;DHT22;37795;53.236;5.704;2024-02-23T13:09:15;12.30;72.10
51719;DHT22;37795;53.236;5.704;2024-02-23T13:11:40;12.30;72.10
51719;DHT22;37795;53.236;5.704;2024-02-23T13:14:06;12.30;72.10
51719;DHT22;37795;53.236;5.704;2024-02-23T13:16:31;12.30;72.10
51719;DHT22;37795;53.236;5.704;2024-02-23T13:18:57;12.30;72.10
51719;DHT22;37795;53.236;5.704;2024-02-23T13:21:23;12.30;72.10
51719;DHT22;37795;53.236;5.704;2024-02-23T13:23:49;12.30;72.20
51719;DHT22;37795;53.236;5.704;2024-02-23T13:26:15;12.30;72.20
51719;DHT22;37795;53.236;5.704;2024-02-23T13:28:43;12.30;72.20
51719;DHT22;37795;53.236;5.704;2024-02-23T13:31:09;12.30;72.20
51719;DHT22;37795;53.236;5.704;2024-02-23T13:33:35;12.30;72.20
51719;DHT22;37795;53.236;5.704;2024-02-23T13:36:00;12.40;72.40
51719;DHT22;37795;53.236;5.704;2024-02-23T13:38:26;12.40;72.40
51719;DHT22;37795;53.236;5.704;2024-02-23T13:40:52;12.40;72.40
51719;DHT22;37795;53.236;5.704;2024-02-23T13:43:17;12.40;72.40
51719;DHT22;37795;53.236;5.704;2024-02-23T13:45:49;12.40;72.40
51719;DHT22;37795;53.236;5.704;2024-02-23T13:48:16;12.40;72.40
51719;DHT22;37795;53.236;5.704;2024-02-23T13:50:44;12.40;72.30
51719;DHT22;37795;53.236;5.704;2024-02-23T13:53:11;12.40;72.30
51719;DHT22;37795;53.236;5.704;2024-02-23T13:55:36;12.40;72.20
51719;DHT22;37795;53.236;5.704;2024-02-23T13:58:02;12.40;72.20
51719;DHT22;37795;53.236;5.704;2024-02-23T14:00:28;12.40;72.20
51719;DHT22;37795;53.236;5.704;2024-02-23T14:02:53;12.40;72.20
51719;DHT22;37795;53.236;5.704;2024-02-23T14:05:19;12.40;72.20
51719;DHT22;37795;53.236;5.704;2024-02-23T14:07:47;12.40;72.20
51719;DHT22;37795;53.236;5.704;2024-02-23T14:10:13;12.50;72.30
51719;DHT22;37795;53.236;5.704;2024-02-23T14:12:39;12.50;72.40
51719;DHT22;37795;53.236;5.704;2024-02-23T14:15:05;12.50;72.30
51719;DHT22;37795;53.236;5.704;2024-02-23T14:17:31;12.50;72.40
51719;DHT22;37795;53.236;5.704;2024-02-23T14:19:57;12.50;72.40
51719;DHT22;37795;53.236;5.704;2024-02-23T14:22:23;12.50;72.40
51719;DHT22;37795;53.236;5.704;2024-02-23T14:24:48;12.50;72.40
51719;DHT22;37795;53.236;5.704;2024-02-23T14:27:14;12.60;72.50
51719;DHT22;37795;53.236;5.704;2024-02-23T14:29:39;12.60;72.40
51719;DHT22;37795;53.236;5.704;2024-02-23T14:32:05;12.60;72.50
51719;DHT22;37795;53.236;5.704;2024-02-23T14:34:31;12.60;72.50
51719;DHT22;37795;53.236;5.704;2024-02-23T14:36:59;12.70;72.50
51719;DHT22;37795;53.236;5.704;2024-02-23T14:39:24;12.70;72.50
51719;DHT22;37795;53.236;5.704;2024-02-23T14:41:50;12.70;72.50
51719;DHT22;37795;53.236;5.704;2024-02-23T14:44:15;12.70;72.40
51719;DHT22;37795;53.236;5.704;2024-02-23T14:46:41;12.70;72.40
51719;DHT22;37795;53.236;5.704;2024-02-23T14:49:06;12.80;72.40
51719;DHT22;37795;53.236;5.704;2024-02-23T14:51:32;12.80;72.40
51719;DHT22;37795;53.236;5.704;2024-02-23T14:53:59;12.70;72.40
51719;DHT22;37795;53.236;5.704;2024-02-23T14:56:27;12.80;72.40
51719;DHT22;37795;53.236;5.704;2024-02-23T14:58:53;12.80;72.40
51719;DHT22;37795;53.236;5.704;2024-02-23T15:01:18;12.80;72.40
51719;DHT22;37795;53.236;5.704;2024-02-23T15:03:44;12.90;72.40
51719;DHT22;37795;53.236;5.704;2024-02-23T15:06:09;12.90;72.40
51719;DHT22;37795;53.236;5.704;2024-02-23T15:08:36;12.90;72.40
51719;DHT22;37795;53.236;5.704;2024-02-23T15:11:02;13.00;72.50
51719;DHT22;37795;53.236;5.704;2024-02-23T15:13:27;13.00;72.40
51719;DHT22;37795;53.236;5.704;2024-02-23T15:15:53;13.00;72.40
51719;DHT22;37795;53.236;5.704;2024-02-23T15:18:19;13.00;72.40
51719;DHT22;37795;53.236;5.704;2024-02-23T15:20:45;13.00;72.40
51719;DHT22;37795;53.236;5.704;2024-02-23T15:23:12;13.00;72.40
51719;DHT22;37795;53.236;5.704;2024-02-23T15:25:38;13.00;72.40
51719;DHT22;37795;53.236;5.704;2024-02-23T15:28:04;13.00;72.40
51719;DHT22;37795;53.236;5.704;2024-02-23T15:30:30;13.00;72.40
51719;DHT22;37795;53.236;5.704;2024-02-23T15:32:55;13.00;72.40
51719;DHT22;37795;53.236;5.704;2024-02-23T15:35:21;13.00;72.40